Time;durP1;ratioP1;P1;durP2;ratioP2;P2;SDS_P1;SDS_P2;PMS_P1;PMS_P2;Temp;Humidity;BMP_temperature;BMP_pressure;BME280_temperature;BME280_humidity;BME280_pressure;Samples;Min_cycle;Max_cycle;Signal;HPM_P1;HPM_P2
2022/05/13 00:00:02;;;;;;;1.98;1.08;;;21.00;49.80;;;;;;5095039;28;20181;-64
2022/05/13 00:02:27;;;;;;;3.85;1.20;;;21.00;49.70;;;;;;5095071;28;20181;-64
2022/05/13 00:04:53;;;;;;;1.75;1.02;;;20.90;49.50;;;;;;5093720;28;20226;-64
2022/05/13 00:07:19;;;;;;;2.08;1.13;;;20.90;49.50;;;;;;5095331;28;20169;-64
2022/05/13 00:09:56;;;;;;;3.15;1.02;;;20.90;50.00;;;;;;5094685;28;20182;-65
2022/05/13 00:12:27;;;;;;;1.80;1.00;;;20.90;49.40;;;;;;5094875;28;20202;-65
2022/05/13 00:14:53;;;;;;;2.33;1.27;;;20.90;49.30;;;;;;5094522;28;20254;-67
2022/05/13 00:17:18;;;;;;;1.38;0.80;;;20.90;49.30;;;;;;5093934;28;20170;-65
2022/05/13 00:19:44;;;;;;;2.42;1.40;;;20.90;49.30;;;;;;5094630;28;20577;-65
2022/05/13 00:22:10;;;;;;;2.95;1.00;;;20.90;49.30;;;;;;5094838;28;20189;-65
2022/05/13 00:24:35;;;;;;;1.42;0.80;;;20.90;49.20;;;;;;5093677;28;20610;-65
2022/05/13 00:27:01;;;;;;;4.28;1.20;;;20.80;49.30;;;;;;5094462;28;20217;-66
2022/05/13 00:29:27;;;;;;;1.65;1.40;;;20.80;49.30;;;;;;5094479;28;20202;-64
2022/05/13 00:31:52;;;;;;;3.22;1.20;;;20.80;49.20;;;;;;5093346;28;20197;-65
2022/05/13 00:34:19;;;;;;;1.65;0.80;;;20.80;49.10;;;;;;5094544;28;20316;-65
2022/05/13 00:36:44;;;;;;;2.38;0.77;;;20.80;49.00;;;;;;5094143;28;20511;-64
2022/05/13 00:39:10;;;;;;;1.05;0.70;;;20.80;49.10;;;;;;5093644;28;20671;-65
2022/05/13 00:41:36;;;;;;;1.80;0.82;;;20.70;49.20;;;;;;5093922;28;20169;-64
2022/05/13 00:44:02;;;;;;;1.48;0.88;;;20.80;49.20;;;;;;5094114;28;20177;-64
2022/05/13 00:46:30;;;;;;;2.65;0.93;;;20.80;49.20;;;;;;5092825;28;20172;-65
2022/05/13 00:48:57;;;;;;;1.65;0.93;;;20.80;49.20;;;;;;5093807;28;20177;-64
2022/05/13 00:51:35;;;;;;;1.88;1.02;;;20.80;49.10;;;;;;5092931;28;20307;-65
2022/05/13 00:54:01;;;;;;;2.10;1.02;;;20.70;49.10;;;;;;5092046;28;20675;-65
2022/05/13 00:56:26;;;;;;;1.83;0.95;;;20.70;49.10;;;;;;5092797;28;20182;-65
2022/05/13 00:58:56;;;;;;;1.42;0.98;;;20.70;49.20;;;;;;5092262;28;20639;-65
2022/05/13 01:01:22;;;;;;;2.38;1.08;;;20.70;49.10;;;;;;5093279;28;20265;-64
2022/05/13 01:03:50;;;;;;;2.72;0.88;;;20.70;49.10;;;;;;5093529;28;20632;-64
2022/05/13 01:06:21;;;;;;;1.17;0.93;;;20.70;49.20;;;;;;5091968;28;20342;-64
2022/05/13 01:08:47;;;;;;;3.05;1.27;;;20.70;49.20;;;;;;5092199;28;20197;-65
2022/05/13 01:11:15;;;;;;;1.38;0.90;;;20.60;49.20;;;;;;5093626;28;20213;-66
2022/05/13 01:13:40;;;;;;;1.48;0.90;;;20.70;49.20;;;;;;5091438;28;20211;-66
2022/05/13 01:16:06;;;;;;;1.98;1.00;;;20.60;49.20;;;;;;5092432;28;20603;-66
2022/05/13 01:18:37;;;;;;;3.78;1.10;;;20.60;49.20;;;;;;5093781;28;20215;-66
2022/05/13 01:21:04;;;;;;;3.30;0.90;;;20.60;49.90;;;;;;5092915;28;20182;-66
2022/05/13 01:23:31;;;;;;;0.68;0.65;;;20.60;49.20;;;;;;5093710;28;20180;-66
2022/05/13 01:26:05;;;;;;;0.98;0.70;;;20.60;49.20;;;;;;5093143;28;20221;-65
2022/05/13 01:28:33;;;;;;;2.55;1.10;;;20.60;49.20;;;;;;5092854;28;20174;-65
2022/05/13 01:31:00;;;;;;;1.75;0.88;;;20.60;49.20;;;;;;5093126;28;20260;-65
2022/05/13 01:33:25;;;;;;;2.75;1.33;;;20.60;49.20;;;;;;5093175;28;20180;-65
2022/05/13 01:35:53;;;;;;;2.90;1.08;;;20.60;49.20;;;;;;5092037;28;20213;-65
2022/05/13 01:38:20;;;;;;;1.48;0.70;;;20.50;49.10;;;;;;5093072;28;20185;-65
2022/05/13 01:40:45;;;;;;;3.97;1.10;;;20.50;49.10;;;;;;5092672;28;20177;-65
2022/05/13 01:43:11;;;;;;;3.20;1.40;;;20.50;49.20;;;;;;5092135;28;20513;-65
2022/05/13 01:45:37;;;;;;;1.52;0.77;;;20.50;49.10;;;;;;5092644;28;20182;-64
2022/05/13 01:48:03;;;;;;;2.13;0.77;;;20.60;49.20;;;;;;5093054;28;20174;-65
2022/05/13 01:50:28;;;;;;;2.10;1.20;;;20.50;49.20;;;;;;5091005;28;20574;-65
2022/05/13 01:52:54;;;;;;;1.52;0.90;;;20.50;49.10;;;;;;5092394;28;20705;-66
2022/05/13 01:55:20;;;;;;;1.83;1.00;;;20.50;49.20;;;;;;5092562;28;20233;-66
2022/05/13 01:57:49;;;;;;;2.20;1.08;;;20.50;49.20;;;;;;5091015;28;20174;-67
2022/05/13 02:00:15;;;;;;;4.05;1.20;;;20.50;49.20;;;;;;5092825;28;20273;-65
2022/05/13 02:05:24;;;;;;;4.50;1.30;;;20.50;49.20;;;;;;5092518;28;20237;-65
2022/05/13 02:07:50;;;;;;;1.77;1.00;;;20.50;49.20;;;;;;5092207;28;20173;-65
2022/05/13 02:10:15;;;;;;;1.75;1.23;;;20.40;49.20;;;;;;5091986;28;20178;-65
2022/05/13 02:12:41;;;;;;;1.85;0.98;;;20.40;49.40;;;;;;5092381;28;20208;-66
2022/05/13 02:15:07;;;;;;;3.22;1.00;;;20.40;49.10;;;;;;5092350;28;20210;-66
2022/05/13 02:17:33;;;;;;;2.05;1.02;;;20.40;49.10;;;;;;5091681;28;20166;-66
2022/05/13 02:19:58;;;;;;;1.85;1.13;;;20.40;49.30;;;;;;5092102;28;20246;-66
2022/05/13 02:22:24;;;;;;;1.85;1.00;;;20.40;49.30;;;;;;5092247;28;20211;-66
2022/05/13 02:24:49;;;;;;;2.63;1.20;;;20.40;49.40;;;;;;5091449;28;20204;-65
2022/05/13 02:27:15;;;;;;;3.42;0.90;;;20.40;49.50;;;;;;5092533;28;20192;-66
2022/05/13 02:29:40;;;;;;;2.15;1.17;;;20.40;49.20;;;;;;5092093;28;20165;-65
2022/05/13 02:32:06;;;;;;;3.78;0.98;;;20.40;49.20;;;;;;5091698;28;20237;-65
2022/05/13 02:34:32;;;;;;;2.33;1.15;;;20.40;49.50;;;;;;5092229;28;20221;-65
2022/05/13 02:36:57;;;;;;;2.88;1.42;;;20.30;49.20;;;;;;5091844;28;20588;-65
2022/05/13 02:39:23;;;;;;;3.08;1.23;;;20.30;49.40;;;;;;5091722;28;20169;-64
2022/05/13 02:41:49;;;;;;;2.83;1.30;;;20.30;49.40;;;;;;5092036;28;20223;-64
2022/05/13 02:44:14;;;;;;;2.65;0.98;;;20.30;49.40;;;;;;5092222;28;20230;-65
2022/05/13 02:46:41;;;;;;;1.88;1.10;;;20.30;49.50;;;;;;5091060;28;20176;-65
2022/05/13 02:49:07;;;;;;;4.50;1.17;;;20.30;49.40;;;;;;5092120;28;20178;-65
2022/05/13 02:51:33;;;;;;;2.58;1.10;;;20.30;49.60;;;;;;5091859;28;20529;-65
2022/05/13 02:53:58;;;;;;;2.45;1.17;;;20.30;49.50;;;;;;5090951;28;20193;-66
2022/05/13 02:56:24;;;;;;;1.65;0.93;;;20.30;49.60;;;;;;5092031;28;20177;-65
2022/05/13 02:58:50;;;;;;;2.35;1.38;;;20.30;49.60;;;;;;5090949;28;20170;-65
2022/05/13 03:01:17;;;;;;;1.60;0.88;;;20.30;49.60;;;;;;5092113;28;20174;-64
2022/05/13 03:03:43;;;;;;;2.72;1.00;;;20.30;49.60;;;;;;5091629;28;20182;-64
2022/05/13 03:06:09;;;;;;;2.33;0.95;;;20.30;49.70;;;;;;5091011;28;20197;-65
2022/05/13 03:08:34;;;;;;;3.17;1.13;;;20.30;49.70;;;;;;5093177;28;20178;-64
2022/05/13 03:11:02;;;;;;;2.42;0.93;;;20.20;49.80;;;;;;5096253;28;20174;-65
2022/05/13 03:13:28;;;;;;;2.90;1.52;;;20.30;49.70;;;;;;5095285;28;20206;-66
2022/05/13 03:15:53;;;;;;;1.55;1.10;;;20.20;49.70;;;;;;5095669;28;20349;-65
2022/05/13 03:18:22;;;;;;;3.35;1.10;;;20.20;49.60;;;;;;5095970;28;20277;-66
2022/05/13 03:20:47;;;;;;;2.22;1.25;;;20.20;49.70;;;;;;5094835;28;20624;-66
2022/05/13 03:23:13;;;;;;;3.03;1.20;;;20.20;49.90;;;;;;5096067;28;20182;-66
2022/05/13 03:25:38;;;;;;;2.83;1.23;;;20.20;49.70;;;;;;5095452;28;20259;-65
2022/05/13 03:28:04;;;;;;;3.95;1.33;;;20.20;49.70;;;;;;5095000;28;20670;-65
2022/05/13 03:30:29;;;;;;;3.78;1.48;;;20.20;49.70;;;;;;5095729;28;20182;-65
2022/05/13 03:32:55;;;;;;;2.63;1.30;;;20.20;49.70;;;;;;5095314;28;20310;-65
2022/05/13 03:35:21;;;;;;;4.88;1.48;;;20.20;49.70;;;;;;5094761;28;20312;-64
2022/05/13 03:37:46;;;;;;;1.85;1.10;;;20.20;49.60;;;;;;5095497;28;20178;-64
2022/05/13 03:40:13;;;;;;;4.30;1.38;;;20.20;49.90;;;;;;5095691;28;20178;-64
2022/05/13 03:42:38;;;;;;;3.97;1.15;;;20.20;49.80;;;;;;5094830;28;20165;-64
2022/05/13 03:45:05;;;;;;;3.17;1.48;;;20.20;50.00;;;;;;5095408;28;20238;-65
2022/05/13 03:47:31;;;;;;;3.35;1.40;;;20.20;49.80;;;;;;5095315;28;20636;-64
2022/05/13 03:49:57;;;;;;;4.55;1.65;;;20.20;49.80;;;;;;5094194;28;20185;-64
2022/05/13 03:52:22;;;;;;;1.70;1.25;;;20.10;49.80;;;;;;5095343;28;20169;-65
2022/05/13 03:54:48;;;;;;;3.55;1.30;;;20.20;49.90;;;;;;5094780;28;20601;-65
2022/05/13 03:57:13;;;;;;;3.13;1.48;;;20.10;50.00;;;;;;5094489;28;20174;-66
2022/05/13 03:59:40;;;;;;;2.10;1.20;;;20.10;50.00;;;;;;5094678;28;20170;-64
2022/05/13 04:02:05;;;;;;;2.47;1.20;;;20.10;50.10;;;;;;5094498;28;20279;-65
2022/05/13 04:08:56;;;;;;;4.68;1.88;;;20.10;50.00;;;;;;5094774;28;20261;-64
2022/05/13 04:10:06;;;;;;;4.53;1.52;;;20.10;50.10;;;;;;5094250;28;20200;-65
2022/05/13 04:18:00;;;;;;;2.97;1.52;;;20.10;50.10;;;;;;5094078;28;20185;-65
2022/05/13 04:20:26;;;;;;;5.00;1.85;;;20.10;50.10;;;;;;5093751;28;20613;-66
2022/05/13 04:22:51;;;;;;;4.95;1.63;;;20.10;50.30;;;;;;5094279;28;20170;-66
2022/05/13 04:25:17;;;;;;;3.92;1.60;;;20.10;50.90;;;;;;5093677;28;20176;-66
2022/05/13 04:27:43;;;;;;;4.10;1.63;;;20.10;50.20;;;;;;5094612;28;20170;-66
2022/05/13 04:30:09;;;;;;;3.17;1.90;;;20.10;50.30;;;;;;5094366;28;20180;-65
2022/05/13 04:32:34;;;;;;;4.15;1.55;;;20.10;50.30;;;;;;5094197;28;20170;-65
2022/05/13 04:35:00;;;;;;;2.85;1.38;;;20.00;50.30;;;;;;5094935;28;20255;-65
2022/05/13 04:37:25;;;;;;;2.67;1.55;;;20.10;50.30;;;;;;5093608;28;20215;-65
2022/05/13 04:39:53;;;;;;;6.80;1.80;;;20.00;50.40;;;;;;5094110;28;20165;-65
2022/05/13 04:45:07;;;;;;;2.63;1.45;;;20.10;50.40;;;;;;5093458;28;20227;-65
2022/05/13 04:50:17;;;;;;;4.53;2.00;;;20.00;50.50;;;;;;5094306;28;20177;-65
2022/05/13 04:52:43;;;;;;;3.33;1.50;;;20.00;50.50;;;;;;5093272;28;20178;-66
2022/05/13 04:55:09;;;;;;;2.83;1.73;;;20.10;50.60;;;;;;5094109;28;20221;-66
2022/05/13 04:57:34;;;;;;;4.53;1.95;;;20.00;50.70;;;;;;5093964;28;20186;-66
2022/05/13 05:00:00;;;;;;;2.50;1.58;;;20.00;50.70;;;;;;5093250;28;20162;-66
2022/05/13 05:02:25;;;;;;;5.00;2.00;;;20.00;50.60;;;;;;5093906;28;20177;-65
2022/05/13 05:04:51;;;;;;;3.92;1.92;;;20.00;50.60;;;;;;5093261;28;20720;-64
2022/05/13 05:07:16;;;;;;;4.78;1.67;;;20.00;50.60;;;;;;5093324;28;20170;-64
2022/05/13 05:09:42;;;;;;;3.22;1.40;;;20.00;51.20;;;;;;5093773;28;20209;-66
2022/05/13 05:12:09;;;;;;;3.47;1.90;;;20.00;50.80;;;;;;5093925;28;20253;-66
2022/05/13 05:14:34;;;;;;;4.05;2.03;;;20.00;50.70;;;;;;5092713;28;20354;-66
2022/05/13 05:17:00;;;;;;;2.60;1.48;;;20.00;50.70;;;;;;5093686;28;20182;-66
2022/05/13 05:19:25;;;;;;;6.40;2.05;;;20.00;50.80;;;;;;5092770;28;20170;-66
2022/05/13 05:21:51;;;;;;;2.88;1.65;;;20.00;50.70;;;;;;5093176;28;20200;-66
2022/05/13 05:24:17;;;;;;;4.05;1.88;;;20.00;50.90;;;;;;5093379;28;20693;-66
2022/05/13 05:26:42;;;;;;;4.60;2.03;;;20.00;50.70;;;;;;5092569;28;20193;-65
2022/05/13 05:29:08;;;;;;;6.28;2.28;;;20.10;50.80;;;;;;5093856;28;20162;-65
2022/05/13 05:31:33;;;;;;;4.07;1.73;;;20.10;50.70;;;;;;5093405;28;20196;-65
2022/05/13 05:33:59;;;;;;;4.00;1.90;;;20.00;50.60;;;;;;5092127;28;20173;-65
2022/05/13 05:36:24;;;;;;;7.38;2.03;;;20.10;50.80;;;;;;5093448;28;20178;-65
2022/05/13 05:38:50;;;;;;;5.03;2.17;;;20.10;50.80;;;;;;5092744;28;20230;-64
2022/05/13 05:41:15;;;;;;;4.60;1.77;;;20.10;50.70;;;;;;5092021;28;20512;-64
2022/05/13 05:43:41;;;;;;;4.47;1.83;;;20.10;50.70;;;;;;5092799;28;20174;-64
2022/05/13 05:46:06;;;;;;;5.53;2.08;;;20.10;50.80;;;;;;5093006;28;20173;-64
2022/05/13 05:48:32;;;;;;;4.45;2.22;;;20.10;50.70;;;;;;5092126;28;20644;-65
2022/05/13 05:50:58;;;;;;;3.15;1.80;;;20.10;50.70;;;;;;5092526;28;20169;-65
2022/05/13 05:58:53;;;;;;;5.18;1.88;;;20.10;51.10;;;;;;5092574;28;20227;-65
2022/05/13 06:01:19;;;;;;;4.82;2.05;;;20.10;51.10;;;;;;5092903;28;20178;-64
2022/05/13 06:03:44;;;;;;;4.57;1.92;;;20.10;51.10;;;;;;5091673;28;20170;-65
2022/05/13 06:06:12;;;;;;;5.53;2.10;;;20.10;51.20;;;;;;5092804;28;20262;-64
2022/05/13 06:08:38;;;;;;;4.25;2.03;;;20.10;51.20;;;;;;5091613;28;20790;-65
2022/05/13 06:11:03;;;;;;;3.65;1.90;;;20.10;51.10;;;;;;5092478;28;20264;-66
2022/05/13 06:13:29;;;;;;;7.18;1.90;;;20.20;51.20;;;;;;5092341;28;20170;-66
2022/05/13 06:15:54;;;;;;;5.35;2.20;;;20.10;51.10;;;;;;5091189;28;20213;-66
2022/05/13 06:18:20;;;;;;;5.45;1.92;;;20.10;51.20;;;;;;5092189;28;20533;-65
2022/05/13 06:20:45;;;;;;;5.40;2.10;;;20.10;51.20;;;;;;5091994;28;20188;-66
2022/05/13 06:23:11;;;;;;;4.07;1.90;;;20.10;51.20;;;;;;5091472;28;20203;-66
2022/05/13 06:25:38;;;;;;;4.70;2.05;;;20.10;51.30;;;;;;5092032;28;20257;-65
2022/05/13 06:28:06;;;;;;;6.03;2.13;;;20.10;51.30;;;;;;5092292;28;20219;-65
2022/05/13 06:30:34;;;;;;;5.13;2.35;;;20.10;51.40;;;;;;5091786;28;20184;-65
2022/05/13 06:33:00;;;;;;;3.40;1.85;;;20.10;51.50;;;;;;5092009;28;20177;-64
2022/05/13 06:35:27;;;;;;;5.78;2.13;;;20.10;51.50;;;;;;5092032;28;20740;-65
2022/05/13 06:38:20;;;;;;;6.70;2.30;;;20.10;51.50;;;;;;5091095;28;20265;-64
2022/05/13 06:40:48;;;;;;;5.07;1.88;;;20.10;51.50;;;;;;5091537;28;20170;-65
2022/05/13 06:43:14;;;;;;;7.43;2.83;;;20.10;51.60;;;;;;5091670;28;20185;-64
2022/05/13 06:45:41;;;;;;;4.43;1.92;;;20.10;51.50;;;;;;5091131;28;20590;-63
2022/05/13 06:48:07;;;;;;;5.35;2.58;;;20.10;51.70;;;;;;5092103;28;20291;-64
2022/05/13 06:50:35;;;;;;;4.30;2.53;;;20.10;51.70;;;;;;5092075;28;20375;-63
2022/05/13 06:53:00;;;;;;;5.63;2.10;;;20.20;51.70;;;;;;5091070;28;20202;-66
2022/05/13 06:55:26;;;;;;;4.55;2.10;;;20.10;51.60;;;;;;5091800;28;20668;-69
2022/05/13 06:57:51;;;;;;;10.13;2.80;;;20.20;51.70;;;;;;5090741;28;20502;-70
2022/05/13 07:00:17;;;;;;;5.82;2.50;;;20.20;51.80;;;;;;5091854;28;20621;-70
2022/05/13 07:02:43;;;;;;;7.18;2.75;;;20.10;51.60;;;;;;5091528;28;20184;-68
2022/05/13 07:05:09;;;;;;;6.75;2.60;;;20.10;51.70;;;;;;5090792;28;20225;-70
2022/05/13 07:07:35;;;;;;;7.28;2.67;;;20.10;51.70;;;;;;5091210;28;20181;-69
2022/05/13 07:10:01;;;;;;;7.35;2.47;;;20.10;51.80;;;;;;5091632;28;20178;-69
2022/05/13 07:12:26;;;;;;;11.30;3.53;;;20.10;51.90;;;;;;5091125;28;20574;-70
2022/05/13 07:14:53;;;;;;;6.60;2.83;;;20.10;51.90;;;;;;5091472;28;20213;-69
2022/05/13 07:17:19;;;;;;;7.78;3.08;;;20.10;52.00;;;;;;5091638;28;20182;-69
2022/05/13 07:19:45;;;;;;;5.88;2.10;;;20.20;51.90;;;;;;5090571;28;20178;-69
2022/05/13 07:22:10;;;;;;;6.55;2.42;;;20.20;51.90;;;;;;5091590;28;20184;-69
2022/05/13 07:24:36;;;;;;;4.50;2.63;;;20.20;51.80;;;;;;5091410;28;20206;-68
2022/05/13 07:27:05;;;;;;;6.22;2.40;;;20.30;52.10;;;;;;5090931;28;20170;-68
2022/05/13 07:29:30;;;;;;;7.18;2.78;;;20.30;52.10;;;;;;5091358;28;20196;-69
2022/05/13 07:31:56;;;;;;;8.18;2.55;;;20.30;52.00;;;;;;5091182;28;20542;-72
2022/05/13 07:34:22;;;;;;;8.38;2.60;;;20.30;52.10;;;;;;5090591;28;20213;-71
2022/05/13 07:36:48;;;;;;;8.85;3.05;;;20.30;52.10;;;;;;5091161;28;20260;-71
2022/05/13 07:41:58;;;;;;;9.13;2.67;;;20.40;51.80;;;;;;5090426;28;20185;-69
2022/05/13 07:44:24;;;;;;;9.23;2.78;;;20.40;52.10;;;;;;5091418;28;20177;-67
2022/05/13 07:46:51;;;;;;;9.45;2.78;;;20.40;52.20;;;;;;5091027;28;20831;-69
2022/05/13 07:49:16;;;;;;;7.28;2.88;;;20.50;52.20;;;;;;5090476;28;20254;-69
2022/05/13 07:51:45;;;;;;;7.03;2.83;;;20.50;52.00;;;;;;5091202;28;20633;-66
2022/05/13 07:54:10;;;;;;;6.43;2.65;;;20.50;51.90;;;;;;5090627;28;20206;-67
2022/05/13 07:56:36;;;;;;;7.05;2.72;;;20.50;51.80;;;;;;5093890;28;20547;-68
2022/05/13 07:59:02;;;;;;;9.57;2.97;;;20.50;52.10;;;;;;5094922;28;20177;-65
2022/05/13 08:01:28;;;;;;;8.48;3.03;;;20.60;52.10;;;;;;5094242;28;20191;-66
2022/05/13 08:03:53;;;;;;;8.98;2.95;;;20.60;52.10;;;;;;5094347;28;20221;-68
2022/05/13 08:06:19;;;;;;;4.65;2.20;;;20.50;52.20;;;;;;5094743;28;20267;-67
2022/05/13 08:08:46;;;;;;;6.05;2.38;;;20.50;52.40;;;;;;5094008;28;20452;-67
2022/05/13 08:11:13;;;;;;;7.82;3.03;;;20.50;52.50;;;;;;5094772;28;20712;-68
2022/05/13 08:13:38;;;;;;;6.20;3.30;;;20.40;52.30;;;;;;5094808;28;20298;-68
2022/05/13 08:16:05;;;;;;;9.90;3.72;;;20.40;52.30;;;;;;5093959;28;20316;-67
2022/05/13 08:18:30;;;;;;;10.95;4.18;;;20.30;52.00;;;;;;5094236;28;20636;-67
2022/05/13 08:20:56;;;;;;;8.77;3.75;;;20.30;52.00;;;;;;5094490;28;20269;-68
2022/05/13 08:23:22;;;;;;;6.45;3.42;;;20.30;51.90;;;;;;5093775;28;20491;-68
2022/05/13 08:25:47;;;;;;;7.28;3.00;;;20.30;51.90;;;;;;5094253;28;20177;-67
2022/05/13 08:28:13;;;;;;;7.53;3.08;;;20.40;51.80;;;;;;5094540;28;20174;-68
2022/05/13 08:30:39;;;;;;;6.38;3.15;;;20.30;51.90;;;;;;5093395;28;20170;-66
2022/05/13 08:33:08;;;;;;;7.32;2.90;;;20.20;51.90;;;;;;5094437;28;20182;-67
2022/05/13 08:35:35;;;;;;;8.40;3.40;;;20.30;51.90;;;;;;5094666;28;20230;-67
2022/05/13 08:38:01;;;;;;;7.68;3.25;;;20.30;51.90;;;;;;5093911;28;20521;-67
2022/05/13 08:41:01;;;;;;;7.15;2.80;;;20.20;51.80;;;;;;5094512;28;20246;-67
2022/05/13 08:43:36;;;;;;;7.20;2.60;;;20.30;51.80;;;;;;5060032;28;20265;-62
2022/05/13 08:46:12;;;;;;;7.93;3.00;;;20.30;51.90;;;;;;5094376;28;20198;-66
2022/05/13 08:48:52;;;;;;;8.40;2.83;;;20.40;52.00;;;;;;5092890;28;20199;-68
2022/05/13 08:51:30;;;;;;;9.27;2.67;;;20.50;52.00;;;;;;5092182;28;20178;-68
2022/05/13 08:54:16;;;;;;;6.32;2.60;;;20.60;51.80;;;;;;5092472;28;20178;-69
2022/05/13 08:56:45;;;;;;;6.70;2.40;;;20.60;51.80;;;;;;5092831;28;20194;-69
2022/05/13 08:59:21;;;;;;;7.63;2.40;;;20.50;51.90;;;;;;5092089;28;20176;-68
2022/05/13 09:01:54;;;;;;;3.95;2.25;;;20.50;52.00;;;;;;5092193;28;20187;-68
2022/05/13 09:04:31;;;;;;;6.35;2.20;;;20.50;52.20;;;;;;5092379;28;20241;-68
2022/05/13 09:06:59;;;;;;;6.10;2.22;;;20.50;52.20;;;;;;5093409;28;20268;-68
2022/05/13 09:09:25;;;;;;;3.17;2.33;;;20.50;52.20;;;;;;5094122;28;20272;-68
2022/05/13 09:11:57;;;;;;;5.30;2.47;;;20.60;52.30;;;;;;5092748;28;20260;-69
2022/05/13 09:14:43;;;;;;;5.32;2.10;;;20.60;52.20;;;;;;5092284;28;20213;-69
2022/05/13 09:17:31;;;;;;;6.57;2.35;;;20.80;52.00;;;;;;5092413;28;20182;-69
2022/05/13 09:20:17;;;;;;;6.38;2.22;;;20.80;51.90;;;;;;5092514;28;20180;-68
2022/05/13 09:22:54;;;;;;;5.82;2.25;;;20.80;52.10;;;;;;5093275;28;20640;-68
2022/05/13 09:25:27;;;;;;;6.97;2.58;;;20.80;52.20;;;;;;5093377;28;20173;-68
2022/05/13 09:27:59;;;;;;;6.75;2.33;;;20.80;52.20;;;;;;5091055;28;20552;-66
2022/05/13 09:30:31;;;;;;;5.97;2.35;;;20.90;51.90;;;;;;5093573;28;20258;-65
2022/05/13 09:32:56;;;;;;;3.80;2.10;;;20.90;51.90;;;;;;5091329;28;20178;-66
2022/05/13 09:35:36;;;;;;;7.22;2.40;;;20.80;52.10;;;;;;5093227;28;20240;-66
2022/05/13 09:38:16;;;;;;;5.50;2.10;;;20.90;52.10;;;;;;5092367;28;20580;-69
2022/05/13 09:40:42;;;;;;;4.35;1.83;;;20.90;51.90;;;;;;5092594;28;20181;-69
2022/05/13 09:43:07;;;;;;;5.47;1.80;;;21.00;51.70;;;;;;5092312;28;20174;-66
2022/05/13 09:45:33;;;;;;;4.90;1.55;;;21.00;51.40;;;;;;5093485;28;20170;-70
2022/05/13 09:48:00;;;;;;;6.20;2.00;;;20.90;50.70;;;;;;5092628;28;20177;-68
2022/05/13 09:50:26;;;;;;;5.95;1.85;;;20.90;50.60;;;;;;5093251;28;20185;-67
2022/05/13 09:52:52;;;;;;;5.55;1.95;;;20.80;50.40;;;;;;5092868;28;20185;-68
2022/05/13 09:55:35;;;;;;;9.90;2.20;;;20.80;51.10;;;;;;5091909;28;20582;-72
2022/05/13 09:58:02;;;;;;;4.93;2.00;;;20.90;50.30;;;;;;5093078;28;20178;-74
2022/05/13 10:00:30;;;;;;;4.60;1.55;;;21.00;50.20;;;;;;5092733;28;20182;-68
2022/05/13 10:03:19;;;;;;;6.28;1.50;;;21.00;50.30;;;;;;5091456;28;20193;-68
2022/05/13 10:05:50;;;;;;;8.98;1.90;;;21.00;50.40;;;;;;5091981;28;20248;-68
2022/05/13 10:08:17;;;;;;;6.75;1.80;;;21.00;50.40;;;;;;5091081;28;20173;-67
2022/05/13 10:13:59;;;;;;;6.97;1.35;;;20.90;50.70;;;;;;5092625;28;20184;-69
2022/05/13 10:16:31;;;;;;;5.05;1.40;;;21.00;50.80;;;;;;5092014;28;20519;-68
2022/05/13 10:19:18;;;;;;;4.90;1.38;;;21.10;50.70;;;;;;5091496;28;20178;-72
2022/05/13 10:21:50;;;;;;;5.18;1.60;;;21.10;50.80;;;;;;5091096;28;20180;-72
2022/05/13 10:24:38;;;;;;;4.07;1.50;;;21.10;50.90;;;;;;5091053;28;20699;-71
2022/05/13 10:27:08;;;;;;;7.57;1.70;;;21.20;50.90;;;;;;5091268;28;20204;-72
2022/05/13 10:29:43;;;;;;;5.00;1.98;;;21.20;50.80;;;;;;5090854;28;20193;-67
2022/05/13 10:32:19;;;;;;;3.55;1.95;;;21.20;50.90;;;;;;5091225;28;20180;-68
2022/05/13 10:34:48;;;;;;;6.47;1.60;;;21.20;51.10;;;;;;5090829;28;20212;-66
2022/05/13 10:37:20;;;;;;;3.90;1.80;;;21.20;50.90;;;;;;5090224;28;20539;-66
2022/05/13 10:39:48;;;;;;;6.35;1.60;;;21.30;50.80;;;;;;5090805;28;20182;-65
2022/05/13 10:42:19;;;;;;;6.28;1.40;;;21.30;50.70;;;;;;5090866;28;20210;-66
2022/05/13 10:45:05;;;;;;;5.20;1.50;;;21.30;50.80;;;;;;5091377;28;20577;-65
2022/05/13 10:47:37;;;;;;;4.15;1.35;;;21.30;50.60;;;;;;5091338;28;20282;-66
2022/05/13 10:50:04;;;;;;;4.75;1.38;;;21.40;50.50;;;;;;5090606;28;20273;-67
2022/05/13 10:52:56;;;;;;;3.63;1.48;;;21.30;50.50;;;;;;5090923;28;20182;-68
2022/05/13 10:55:51;;;;;;;6.18;1.85;;;21.40;50.10;;;;;;5068366;28;20259;-66
2022/05/13 10:58:29;;;;;;;4.93;1.35;;;21.40;50.10;;;;;;5090336;28;20215;-66
2022/05/13 11:01:32;;;;;;;4.47;1.40;;;21.40;50.20;;;;;;5090163;28;20189;-65
2022/05/13 11:03:59;;;;;;;4.78;1.45;;;21.40;50.50;;;;;;5090622;28;20199;-65
2022/05/13 11:06:46;;;;;;;7.40;1.83;;;21.40;50.50;;;;;;5091204;28;20696;-65
2022/05/13 11:09:39;;;;;;;4.32;1.48;;;21.50;50.60;;;;;;5090637;28;20284;-66
2022/05/13 11:12:27;;;;;;;2.33;1.27;;;21.40;50.70;;;;;;5090164;28;20535;-67
2022/05/13 11:15:08;;;;;;;4.15;1.42;;;21.30;50.70;;;;;;5083084;28;20275;-67
2022/05/13 11:17:52;;;;;;;4.00;1.65;;;21.30;50.90;;;;;;5090441;28;20610;-66
2022/05/13 11:20:27;;;;;;;5.07;1.63;;;21.30;51.00;;;;;;5089624;28;20527;-66
2022/05/13 11:23:03;;;;;;;4.38;1.40;;;21.20;50.90;;;;;;5091514;28;20169;-67
2022/05/13 11:28:34;;;;;;;4.82;1.30;;;21.10;50.80;;;;;;5088535;28;20242;-65
2022/05/13 11:31:12;;;;;;;3.38;1.00;;;21.20;50.50;;;;;;5093486;28;20178;-65
2022/05/13 11:33:49;;;;;;;4.97;1.38;;;21.20;50.40;;;;;;5094714;28;20265;-64
2022/05/13 11:36:21;;;;;;;3.40;1.55;;;21.10;50.40;;;;;;5075516;28;20198;-64
2022/05/13 11:39:14;;;;;;;2.97;1.20;;;21.10;50.30;;;;;;5074982;28;20250;-65
2022/05/13 11:42:18;;;;;;;3.25;1.13;;;21.20;50.20;;;;;;5075247;28;20181;-64
2022/05/13 11:45:00;;;;;;;4.82;1.38;;;21.20;50.10;;;;;;5074041;28;20675;-64
2022/05/13 11:47:31;;;;;;;2.47;1.10;;;21.30;49.90;;;;;;5073596;28;20186;-64
2022/05/13 11:49:56;;;;;;;3.45;1.40;;;21.30;49.90;;;;;;5075163;28;20205;-64
2022/05/13 11:52:46;;;;;;;3.25;1.10;;;21.20;50.00;;;;;;5074472;28;20163;-64
2022/05/13 11:55:42;;;;;;;4.53;1.20;;;21.20;50.00;;;;;;5074584;28;20206;-66
2022/05/13 11:58:08;;;;;;;2.75;1.00;;;21.30;49.80;;;;;;5063994;28;20186;-65
2022/05/13 12:00:37;;;;;;;2.25;1.10;;;21.20;49.90;;;;;;5083617;28;20222;-64
2022/05/13 12:03:08;;;;;;;3.50;0.80;;;21.30;49.80;;;;;;5095116;28;20547;-65
2022/05/13 12:06:02;;;;;;;4.00;1.08;;;21.30;49.80;;;;;;5094939;28;20307;-64
2022/05/13 12:08:38;;;;;;;1.50;0.77;;;21.40;49.60;;;;;;5094494;28;20644;-64
2022/05/13 12:11:17;;;;;;;2.10;1.30;;;21.50;49.50;;;;;;5094356;28;20169;-65
2022/05/13 12:13:55;;;;;;;2.47;1.08;;;21.40;49.50;;;;;;5078492;28;20206;-65
2022/05/13 12:16:36;;;;;;;3.92;1.10;;;21.40;49.50;;;;;;5093214;28;20287;-66
2022/05/13 12:19:31;;;;;;;2.53;1.27;;;21.40;49.60;;;;;;5093552;28;20608;-66
2022/05/13 12:22:30;;;;;;;4.30;1.30;;;21.50;49.60;;;;;;5092614;28;20489;-66
2022/05/13 12:25:01;;;;;;;2.75;1.10;;;21.50;49.60;;;;;;5093349;28;20235;-67
2022/05/13 12:27:34;;;;;;;3.05;1.10;;;21.40;49.60;;;;;;5093493;28;20173;-66
2022/05/13 12:30:11;;;;;;;5.03;1.20;;;21.40;49.60;;;;;;5092517;28;20256;-65
2022/05/13 12:32:47;;;;;;;3.65;1.17;;;21.40;49.70;;;;;;5094262;28;20192;-66
2022/05/13 12:38:19;;;;;;;2.58;0.90;;;21.50;49.60;;;;;;5093416;28;20300;-66
2022/05/13 12:41:09;;;;;;;4.57;1.33;;;21.50;49.60;;;;;;5092498;28;20273;-66
2022/05/13 12:44:05;;;;;;;2.45;1.30;;;21.50;49.60;;;;;;5093427;28;20182;-65
2022/05/13 12:47:14;;;;;;;3.00;1.40;;;21.50;49.60;;;;;;5094585;28;20181;-65
2022/05/13 12:49:48;;;;;;;2.05;1.15;;;21.60;49.40;;;;;;5093184;28;20178;-64
2022/05/13 12:52:15;;;;;;;2.70;1.23;;;21.60;49.30;;;;;;5094514;28;20264;-65
2022/05/13 12:54:45;;;;;;;1.90;1.08;;;21.60;49.30;;;;;;5093836;28;20201;-66
2022/05/13 12:57:19;;;;;;;2.35;1.00;;;21.60;49.20;;;;;;5092280;28;20234;-67
2022/05/13 12:59:47;;;;;;;2.03;0.80;;;21.70;49.90;;;;;;5092464;28;20368;-66
2022/05/13 13:02:12;;;;;;;2.63;1.02;;;21.60;49.40;;;;;;5092867;28;20181;-66
2022/05/13 13:04:46;;;;;;;2.13;0.90;;;21.60;49.30;;;;;;5091496;28;20611;-65
2022/05/13 13:07:12;;;;;;;3.50;1.30;;;21.70;49.30;;;;;;5092684;28;20189;-66
2022/05/13 13:09:43;;;;;;;1.48;0.75;;;21.70;49.10;;;;;;5092224;28;20174;-66
2022/05/13 13:12:27;;;;;;;2.45;1.00;;;21.70;49.20;;;;;;5093068;28;20181;-66
2022/05/13 13:15:11;;;;;;;1.00;0.80;;;21.70;49.20;;;;;;5091967;28;20556;-66
2022/05/13 13:17:52;;;;;;;3.05;1.20;;;21.70;49.20;;;;;;5092224;28;20189;-67
2022/05/13 13:20:18;;;;;;;2.13;0.93;;;21.70;49.20;;;;;;5092533;28;20184;-67
2022/05/13 13:22:46;;;;;;;2.33;1.20;;;21.60;49.30;;;;;;5093109;28;20231;-66
2022/05/13 13:25:32;;;;;;;2.78;1.02;;;21.60;49.40;;;;;;5092942;28;20178;-67
2022/05/13 13:27:59;;;;;;;1.58;1.30;;;21.70;49.30;;;;;;5091929;28;20170;-66
2022/05/13 13:30:25;;;;;;;3.80;1.10;;;21.70;49.20;;;;;;5092093;28;20636;-66
2022/05/13 13:32:51;;;;;;;1.50;1.05;;;21.70;49.20;;;;;;5091192;28;20188;-66